createdAt,value
2022-12-18T00:01:35.264Z,102689.38
2022-12-18T00:04:05.654Z,102686.19
2022-12-18T00:06:34.179Z,102674.81
2022-12-18T00:09:02.689Z,102680.28
2022-12-18T00:11:32.038Z,102685.31
2022-12-18T00:14:00.590Z,102679.09
2022-12-18T00:16:29.239Z,102668.50
2022-12-18T00:18:58.539Z,102674.16
2022-12-18T00:21:26.404Z,102686.72
2022-12-18T00:23:53.807Z,102682.59
2022-12-18T00:26:25.258Z,102668.91
2022-12-18T00:28:53.366Z,102666.81
2022-12-18T00:31:24.782Z,102660.97
2022-12-18T00:33:54.151Z,102656.44
2022-12-18T00:36:29.385Z,102666.00
2022-12-18T00:38:59.200Z,102670.13
2022-12-18T00:41:46.060Z,102672.16
2022-12-18T00:44:16.105Z,102664.69
2022-12-18T00:46:45.117Z,102676.28
2022-12-18T00:49:12.841Z,102672.75
2022-12-18T00:51:40.097Z,102663.25
2022-12-18T00:54:07.362Z,102665.69
2022-12-18T00:56:39.368Z,102661.66
2022-12-18T00:59:13.039Z,102663.19
2022-12-18T01:01:40.395Z,102673.22
2022-12-18T01:04:07.821Z,102676.88
2022-12-18T01:06:36.818Z,102684.47
2022-12-18T01:09:04.602Z,102692.50
2022-12-18T01:11:32.134Z,102695.56
2022-12-18T01:14:00.449Z,102691.03
2022-12-18T01:16:27.577Z,102695.72
2022-12-18T01:18:56.117Z,102679.69
2022-12-18T01:21:25.126Z,102672.56
2022-12-18T01:23:55.394Z,102663.69
2022-12-18T01:26:23.568Z,102664.13
2022-12-18T01:28:50.730Z,102668.38
2022-12-18T01:31:24.656Z,102664.34
2022-12-18T01:33:53.434Z,102671.09
2022-12-18T01:36:23.618Z,102665.38
2022-12-18T01:38:51.813Z,102668.25
2022-12-18T01:41:48.626Z,102667.19
2022-12-18T01:45:00.959Z,102665.66
2022-12-18T01:47:54.832Z,102666.34
2022-12-18T01:50:25.654Z,102668.16
2022-12-18T01:53:04.257Z,102661.47
2022-12-18T01:55:39.679Z,102664.25
2022-12-18T01:58:06.976Z,102669.59
2022-12-18T02:00:34.104Z,102662.44
2022-12-18T02:03:01.822Z,102661.38
2022-12-18T02:05:56.703Z,102671.41
2022-12-18T02:08:43.161Z,102678.09
2022-12-18T02:11:21.874Z,102666.88
2022-12-18T02:14:10.686Z,102653.56
2022-12-18T02:17:12.275Z,102666.00
2022-12-18T02:20:23.922Z,102667.53
2022-12-18T02:22:58.097Z,102665.53
2022-12-18T02:25:52.543Z,102666.91
2022-12-18T02:28:23.745Z,102666.78
2022-12-18T02:30:54.616Z,102653.88
2022-12-18T02:33:23.747Z,102646.44
2022-12-18T02:35:53.721Z,102637.97
2022-12-18T02:38:21.045Z,102623.47
2022-12-18T02:40:51.049Z,102620.38
2022-12-18T02:43:18.219Z,102614.72
2022-12-18T02:45:58.044Z,102603.00
2022-12-18T02:48:36.186Z,102591.28
2022-12-18T02:51:46.731Z,102595.44
2022-12-18T02:54:25.850Z,102590.69
2022-12-18T02:56:57.498Z,102591.94
2022-12-18T02:59:58.223Z,102588.81
2022-12-18T03:03:06.992Z,102581.97
2022-12-18T03:05:57.753Z,102580.75
2022-12-18T03:08:30.022Z,102585.88
2022-12-18T03:11:10.955Z,102577.63
2022-12-18T03:13:51.044Z,102573.69
2022-12-18T03:16:28.665Z,102575.69
2022-12-18T03:19:21.933Z,102570.03
2022-12-18T03:21:58.268Z,102580.06
2022-12-18T03:24:30.238Z,102581.09
2022-12-18T03:27:03.925Z,102572.56
2022-12-18T03:30:08.277Z,102563.91
2022-12-18T03:33:08.279Z,102561.44
2022-12-18T03:35:41.276Z,102548.41
2022-12-18T03:38:08.975Z,102560.03
2022-12-18T03:41:13.760Z,102554.06
2022-12-18T03:44:01.909Z,102557.78
2022-12-18T03:46:49.881Z,102561.38
2022-12-18T03:49:51.677Z,102548.28
2022-12-18T03:52:37.162Z,102549.19
2022-12-18T03:55:06.490Z,102554.78
2022-12-18T03:57:34.418Z,102545.16
2022-12-18T04:00:13.417Z,102549.72
2022-12-18T04:02:47.210Z,102549.56
2022-12-18T04:05:15.400Z,102550.66
2022-12-18T04:07:44.127Z,102543.72
2022-12-18T04:10:13.392Z,102548.28
2022-12-18T04:12:40.567Z,102539.50
2022-12-18T04:15:09.354Z,102551.88
2022-12-18T04:17:36.549Z,102540.44
2022-12-18T04:20:04.407Z,102543.97
2022-12-18T04:22:31.610Z,102548.53
2022-12-18T04:24:58.780Z,102539.69
2022-12-18T04:27:25.970Z,102537.09
2022-12-18T04:29:53.177Z,102538.78
2022-12-18T04:32:20.331Z,102544.88
2022-12-18T04:34:47.490Z,102539.25
2022-12-18T04:37:14.817Z,102561.53
2022-12-18T04:39:42.009Z,102557.56
2022-12-18T04:42:09.108Z,102549.25
2022-12-18T04:44:37.096Z,102540.44
2022-12-18T04:47:04.462Z,102534.56
2022-12-18T04:49:31.544Z,102535.19
2022-12-18T04:51:58.691Z,102533.88
2022-12-18T04:54:26.488Z,102533.41
2022-12-18T04:56:53.714Z,102525.06
2022-12-18T04:59:21.815Z,102534.47
2022-12-18T05:01:49.126Z,102531.25
2022-12-18T05:04:16.804Z,102533.72
2022-12-18T05:06:45.246Z,102540.41
2022-12-18T05:09:12.364Z,102542.59
2022-12-18T05:11:39.621Z,102539.44
2022-12-18T05:14:06.775Z,102539.72
2022-12-18T05:16:34.009Z,102539.13
2022-12-18T05:19:01.180Z,102546.06
2022-12-18T05:21:28.286Z,102539.00
2022-12-18T05:23:55.384Z,102538.50
2022-12-18T05:26:22.507Z,102533.25
2022-12-18T05:28:49.701Z,102534.38
2022-12-18T05:31:17.125Z,102538.22
2022-12-18T05:33:44.503Z,102528.84
2022-12-18T05:36:12.715Z,102530.72
2022-12-18T05:38:40.848Z,102523.06
2022-12-18T05:41:09.650Z,102525.13
2022-12-18T05:43:39.322Z,102533.97
2022-12-18T05:46:10.029Z,102532.44
2022-12-18T05:48:37.161Z,102528.25
2022-12-18T05:51:08.305Z,102538.97
2022-12-18T05:53:37.893Z,102533.00
2022-12-18T05:56:08.757Z,102546.22
2022-12-18T05:58:36.481Z,102541.09
2022-12-18T06:01:16.831Z,102537.69
2022-12-18T06:03:44.958Z,102539.50
2022-12-18T06:06:24.721Z,102532.56
2022-12-18T06:08:52.879Z,102530.81
2022-12-18T06:11:26.437Z,102524.84
2022-12-18T06:13:58.535Z,102520.47
2022-12-18T06:16:27.841Z,102513.53
2022-12-18T06:19:02.489Z,102510.94
2022-12-18T06:21:30.594Z,102511.06
2022-12-18T06:23:59.272Z,102519.09
2022-12-18T06:26:28.521Z,102520.06
2022-12-18T06:28:56.509Z,102518.38
2022-12-18T06:31:23.886Z,102515.06
2022-12-18T06:33:51.296Z,102510.03
2022-12-18T06:36:18.861Z,102517.31
2022-12-18T06:38:46.085Z,102507.13
2022-12-18T06:41:20.242Z,102527.97
2022-12-18T06:43:47.481Z,102535.06
2022-12-18T06:46:15.013Z,102533.94
2022-12-18T06:48:42.552Z,102519.31
2022-12-18T06:51:09.883Z,102502.94
2022-12-18T06:53:37.226Z,102489.75
2022-12-18T06:56:10.159Z,102483.56
2022-12-18T06:58:39.478Z,102470.22
2022-12-18T07:01:11.158Z,102482.44
2022-12-18T07:03:43.799Z,102467.50
2022-12-18T07:06:20.640Z,102466.94
2022-12-18T07:08:48.989Z,102458.66
2022-12-18T07:11:17.203Z,102446.84
2022-12-18T07:13:44.767Z,102448.19
2022-12-18T07:16:24.697Z,102441.97
2022-12-18T07:18:55.600Z,102440.59
2022-12-18T07:21:25.049Z,102433.97
2022-12-18T07:23:52.635Z,102423.16
2022-12-18T07:26:22.427Z,102422.50
2022-12-18T07:28:50.604Z,102413.13
2022-12-18T07:31:22.304Z,102413.25
2022-12-18T07:33:51.201Z,102409.72
2022-12-18T07:36:18.816Z,102413.47
2022-12-18T07:38:49.838Z,102411.78
2022-12-18T07:41:17.732Z,102415.50
2022-12-18T07:43:45.180Z,102425.44
2022-12-18T07:46:17.739Z,102429.72
2022-12-18T07:48:46.218Z,102432.56
2022-12-18T07:51:18.603Z,102421.19
2022-12-18T07:53:45.865Z,102421.97
2022-12-18T07:56:31.123Z,102427.19
2022-12-18T07:59:00.127Z,102421.38
2022-12-18T08:01:28.310Z,102428.59
2022-12-18T08:03:55.618Z,102423.44
2022-12-18T08:06:23.908Z,102429.72
2022-12-18T08:08:56.797Z,102430.66
2022-12-18T08:11:26.421Z,102426.28
2022-12-18T08:13:54.326Z,102416.00
2022-12-18T08:16:23.049Z,102417.69
2022-12-18T08:18:52.275Z,102418.59
2022-12-18T08:21:27.950Z,102407.16
2022-12-18T08:23:58.176Z,102391.19
2022-12-18T08:26:28.317Z,102375.53
2022-12-18T08:28:57.178Z,102377.44
2022-12-18T08:31:25.074Z,102386.19
2022-12-18T08:33:53.908Z,102405.56
2022-12-18T08:36:23.941Z,102408.94
2022-12-18T08:38:52.054Z,102412.34
2022-12-18T08:41:20.106Z,102410.63
2022-12-18T08:44:06.342Z,102413.13
2022-12-18T08:46:40.801Z,102427.56
2022-12-18T08:49:09.523Z,102432.38
2022-12-18T08:51:37.151Z,102431.06
2022-12-18T08:54:06.335Z,102418.69
2022-12-18T08:56:35.062Z,102400.94
2022-12-18T08:59:02.277Z,102413.22
2022-12-18T09:01:29.662Z,102399.78
2022-12-18T09:03:57.015Z,102403.22
2022-12-18T09:06:24.932Z,102410.56
2022-12-18T09:08:52.221Z,102391.47
2022-12-18T09:11:26.400Z,102394.97
2022-12-18T09:13:54.949Z,102401.13
2022-12-18T09:16:26.127Z,102397.06
2022-12-18T09:19:00.655Z,102393.97
2022-12-18T09:21:36.768Z,102393.78
2022-12-18T09:24:08.562Z,102378.41
2022-12-18T09:26:36.127Z,102371.53
2022-12-18T09:29:08.167Z,102375.38
2022-12-18T09:31:35.771Z,102371.00
2022-12-18T09:34:03.066Z,102376.44
2022-12-18T09:36:30.287Z,102368.66
2022-12-18T09:39:02.633Z,102369.72
2022-12-18T09:41:55.689Z,102375.22
2022-12-18T09:44:31.557Z,102376.31
2022-12-18T09:47:12.122Z,102371.03
2022-12-18T09:49:45.416Z,102384.16
2022-12-18T09:52:45.435Z,102387.59
2022-12-18T09:55:35.088Z,102380.53
2022-12-18T09:58:41.235Z,102381.56
2022-12-18T10:01:17.524Z,102380.91
2022-12-18T10:03:44.731Z,102381.75
2022-12-18T10:06:40.603Z,102373.53
2022-12-18T10:09:21.545Z,102373.53
2022-12-18T10:12:22.386Z,102381.75
2022-12-18T10:15:03.921Z,102373.16
2022-12-18T10:17:57.925Z,102358.41
2022-12-18T10:21:14.608Z,102339.13
2022-12-18T10:23:58.177Z,102331.44
2022-12-18T10:26:26.265Z,102329.84
2022-12-18T10:28:56.938Z,102329.56
2022-12-18T10:31:26.642Z,102319.81
2022-12-18T10:33:56.158Z,102307.31
2022-12-18T10:36:28.137Z,102308.25
2022-12-18T10:39:00.201Z,102308.88
2022-12-18T10:41:29.253Z,102302.88
2022-12-18T10:44:24.085Z,102290.81
2022-12-18T10:46:59.331Z,102286.44
2022-12-18T10:49:33.886Z,102280.44
2022-12-18T10:52:16.313Z,102308.91
2022-12-18T10:55:04.296Z,102320.97
2022-12-18T10:57:42.540Z,102335.66
2022-12-18T11:00:29.638Z,102337.34
2022-12-18T11:02:57.974Z,102344.72
2022-12-18T11:05:34.972Z,102346.41
2022-12-18T11:08:02.552Z,102340.19
2022-12-18T11:10:40.146Z,102323.63
2022-12-18T11:13:23.074Z,102326.22
2022-12-18T11:15:51.299Z,102316.53
2022-12-18T11:18:32.913Z,102323.13
2022-12-18T11:21:13.923Z,102334.63
2022-12-18T11:23:54.941Z,102327.75
2022-12-18T11:26:34.779Z,102317.56
2022-12-18T11:29:18.911Z,102331.75
2022-12-18T11:31:47.358Z,102318.84
2022-12-18T11:34:31.549Z,102311.56
2022-12-18T11:37:02.108Z,102309.13
2022-12-18T11:39:59.210Z,102288.69
2022-12-18T11:42:40.831Z,102283.34
2022-12-18T11:45:14.042Z,102281.94
2022-12-18T11:47:53.591Z,102278.69
2022-12-18T11:50:46.016Z,102282.56
2022-12-18T11:53:13.834Z,102280.63
2022-12-18T11:55:49.724Z,102277.28
2022-12-18T11:58:39.448Z,102267.94
2022-12-18T12:01:36.497Z,102265.06
2022-12-18T12:04:27.762Z,102257.53
2022-12-18T12:07:19.297Z,102245.84
2022-12-18T12:10:11.419Z,102249.47
2022-12-18T12:13:16.812Z,102242.09
2022-12-18T12:15:43.828Z,102241.69
2022-12-18T12:18:44.745Z,102236.38
2022-12-18T12:21:40.380Z,102232.59
2022-12-18T12:24:43.075Z,102229.88
2022-12-18T12:27:55.648Z,102228.31
2022-12-18T12:30:57.800Z,102231.91
2022-12-18T12:34:05.123Z,102232.81
2022-12-18T12:37:08.525Z,102232.41
2022-12-18T12:39:43.880Z,102232.00
2022-12-18T12:42:57.391Z,102225.91
2022-12-18T12:45:39.694Z,102216.81
2022-12-18T12:48:17.692Z,102218.63
2022-12-18T12:50:46.138Z,102207.91
2022-12-18T12:53:31.653Z,102212.44
2022-12-18T12:55:59.680Z,102212.31
2022-12-18T12:59:12.001Z,102213.31
2022-12-18T13:02:03.701Z,102213.59
2022-12-18T13:04:44.815Z,102209.72
2022-12-18T13:07:29.011Z,102197.78
2022-12-18T13:10:31.710Z,102200.38
2022-12-18T13:13:13.493Z,102186.09
2022-12-18T13:16:09.162Z,102189.25
2022-12-18T13:18:36.848Z,102187.91
2022-12-18T13:21:28.385Z,102188.13
2022-12-18T13:23:57.356Z,102183.88
2022-12-18T13:26:28.802Z,102169.00
2022-12-18T13:28:58.335Z,102164.94
2022-12-18T13:31:31.930Z,102157.84
2022-12-18T13:34:26.152Z,102162.47
2022-12-18T13:37:00.468Z,102155.28
2022-12-18T13:39:36.965Z,102149.88
2022-12-18T13:42:07.406Z,102149.22
2022-12-18T13:44:40.977Z,102155.28
2022-12-18T13:47:39.037Z,102166.03
2022-12-18T13:50:36.554Z,102160.72
2022-12-18T13:53:06.024Z,102158.13
2022-12-18T13:55:33.696Z,102155.00
2022-12-18T13:58:07.676Z,102147.69
2022-12-18T14:00:34.981Z,102148.91
2022-12-18T14:03:02.704Z,102155.34
2022-12-18T14:05:38.683Z,102150.59
2022-12-18T14:08:12.521Z,102149.38
2022-12-18T14:10:50.167Z,102148.81
2022-12-18T14:13:32.567Z,102149.38
2022-12-18T14:16:04.400Z,102152.41
2022-12-18T14:19:15.905Z,102142.50
2022-12-18T14:21:50.787Z,102150.59
2022-12-18T14:24:22.152Z,102148.81
2022-12-18T14:26:51.503Z,102146.56
2022-12-18T14:29:24.780Z,102141.47
2022-12-18T14:32:13.372Z,102131.00
2022-12-18T14:34:48.523Z,102120.44
2022-12-18T14:37:21.373Z,102120.66
2022-12-18T14:40:07.125Z,102118.19
2022-12-18T14:42:38.514Z,102126.50
2022-12-18T14:46:00.536Z,102116.09
2022-12-18T14:48:42.041Z,102124.44
2022-12-18T14:51:25.323Z,102119.25
2022-12-18T14:54:16.553Z,102112.03
2022-12-18T14:56:48.314Z,102099.22
2022-12-18T14:59:24.206Z,102109.34
2022-12-18T15:03:22.398Z,102090.78
2022-12-18T15:05:50.446Z,102093.72
2022-12-18T15:08:40.639Z,102085.81
2022-12-18T15:11:29.577Z,102080.66
2022-12-18T15:13:59.041Z,102072.88
2022-12-18T15:16:26.532Z,102073.22
2022-12-18T15:18:54.605Z,102072.44
2022-12-18T15:21:22.737Z,102069.06
2022-12-18T15:23:52.593Z,102072.88
2022-12-18T15:26:22.871Z,102066.34
2022-12-18T15:28:59.576Z,102073.44
2022-12-18T15:31:37.095Z,102060.50
2022-12-18T15:34:13.895Z,102071.31
2022-12-18T15:36:41.834Z,102067.59
2022-12-18T15:39:13.891Z,102056.34
2022-12-18T15:41:41.050Z,102064.22
2022-12-18T15:44:26.494Z,102070.28
2022-12-18T15:46:53.645Z,102059.03
2022-12-18T15:49:20.897Z,102068.94
2022-12-18T15:51:57.660Z,102067.81
2022-12-18T15:54:43.265Z,57764.94
2022-12-18T15:57:26.335Z,102067.81
2022-12-18T15:59:59.315Z,102050.81
2022-12-18T16:02:29.518Z,57764.94
2022-12-18T16:04:58.012Z,102040.13
2022-12-18T16:07:28.166Z,102041.59
2022-12-18T16:09:58.942Z,102041.59
2022-12-18T16:12:28.845Z,57764.94
2022-12-18T16:14:56.704Z,57764.94
2022-12-18T16:17:24.557Z,57764.94
2022-12-18T16:19:52.483Z,57764.94
2022-12-18T16:22:29.005Z,57764.94
2022-12-18T16:24:58.454Z,57764.94
2022-12-18T16:27:27.056Z,57764.94
2022-12-18T16:29:55.077Z,57764.94
2022-12-18T16:32:24.639Z,57764.94
2022-12-18T16:34:53.052Z,57764.94
2022-12-18T16:37:21.009Z,57764.94
2022-12-18T16:39:48.873Z,57764.94
2022-12-18T16:42:20.521Z,57764.94
2022-12-18T16:44:54.413Z,57764.94
2022-12-18T18:30:38.422Z,58577.88
2022-12-18T23:46:53.140Z,58577.88
2022-12-18T23:49:20.800Z,58577.88
2022-12-18T23:51:47.836Z,58577.88
2022-12-18T23:54:14.901Z,58577.88
2022-12-18T23:56:42.218Z,58577.88
2022-12-18T23:59:09.591Z,58577.88
